createdAt,value
2019-01-14T00:00:15.288Z,100721.98
2019-01-14T00:03:19.001Z,100717.11
2019-01-14T00:06:22.552Z,100722.68
2019-01-14T00:09:31.079Z,100727.95
2019-01-14T00:12:29.481Z,100724.44
2019-01-14T00:15:32.913Z,100733.87
2019-01-14T00:18:36.432Z,100748.49
2019-01-14T00:21:39.903Z,100749.58
2019-01-14T00:24:43.354Z,100755.00
2019-01-14T00:27:46.875Z,100753.94
2019-01-14T00:30:50.331Z,100753.44
2019-01-14T00:33:53.903Z,100757.39
2019-01-14T00:36:57.367Z,100761.77
2019-01-14T00:40:00.839Z,100771.20
2019-01-14T00:43:04.369Z,100779.32
2019-01-14T00:46:07.845Z,100784.57
2019-01-14T00:49:11.347Z,100786.22
2019-01-14T00:52:14.877Z,100789.14
2019-01-14T00:55:18.312Z,100792.44
2019-01-14T00:58:21.762Z,100799.24
2019-01-14T01:01:25.303Z,100802.78
2019-01-14T01:04:28.747Z,100803.18
2019-01-14T01:07:32.303Z,100799.69
2019-01-14T01:10:35.757Z,100794.55
2019-01-14T01:13:39.314Z,100798.66
2019-01-14T01:16:42.855Z,100794.11
2019-01-14T01:19:46.223Z,100792.53
2019-01-14T01:22:50.690Z,100799.79
2019-01-14T01:25:54.091Z,100804.30
2019-01-14T01:28:57.498Z,100812.90
2019-01-14T01:32:00.940Z,100810.17
2019-01-14T01:35:05.106Z,100814.53
2019-01-14T01:38:08.480Z,100810.15
2019-01-14T01:41:11.928Z,100818.28
2019-01-14T01:44:15.398Z,100825.59
2019-01-14T01:47:18.770Z,100826.41
2019-01-14T01:50:22.216Z,100828.16
2019-01-14T01:53:25.588Z,100838.50
2019-01-14T01:56:28.988Z,100841.13
2019-01-14T01:59:32.402Z,100849.03
2019-01-14T02:02:35.787Z,100842.76
2019-01-14T02:05:39.237Z,100843.16
2019-01-14T02:08:42.719Z,100849.47
2019-01-14T02:11:46.140Z,100849.00
2019-01-14T02:14:49.636Z,100848.75
2019-01-14T02:17:53.154Z,100849.25
2019-01-14T02:20:56.689Z,100861.49
2019-01-14T02:24:00.143Z,100870.74
2019-01-14T02:27:03.619Z,100873.78
2019-01-14T02:30:08.927Z,100865.64
2019-01-14T02:33:12.310Z,100871.26
2019-01-14T02:36:15.801Z,100875.13
2019-01-14T02:39:19.238Z,100888.47
2019-01-14T02:42:22.709Z,100886.03
2019-01-14T02:45:26.217Z,100885.77
2019-01-14T02:48:29.675Z,100901.91
2019-01-14T02:51:33.151Z,100898.10
2019-01-14T02:54:36.568Z,100899.06
2019-01-14T02:57:40.044Z,100909.74
2019-01-14T03:00:43.470Z,100913.87
2019-01-14T03:03:46.879Z,100920.31
2019-01-14T03:06:57.582Z,100925.14
2019-01-14T03:09:53.985Z,100926.23
2019-01-14T03:12:57.525Z,100921.94
2019-01-14T03:16:00.960Z,100928.19
2019-01-14T03:19:04.526Z,100922.27
2019-01-14T03:22:08.056Z,100927.33
2019-01-14T03:25:12.001Z,100932.74
2019-01-14T03:28:15.524Z,100950.12
2019-01-14T03:31:19.050Z,100950.25
2019-01-14T03:34:22.580Z,100956.19
2019-01-14T03:37:26.095Z,100962.53
2019-01-14T03:40:29.616Z,100961.00
2019-01-14T03:43:33.229Z,100969.81
2019-01-14T03:46:36.736Z,100972.29
2019-01-14T03:49:40.236Z,100980.73
2019-01-14T03:52:43.844Z,100989.67
2019-01-14T03:55:47.421Z,100995.07
2019-01-14T03:58:50.991Z,101003.27
2019-01-14T04:01:54.410Z,101010.84
2019-01-14T04:04:57.978Z,101021.28
2019-01-14T04:08:01.483Z,101027.68
2019-01-14T04:11:05.001Z,101037.21
2019-01-14T04:14:08.425Z,101043.54
2019-01-14T04:17:11.965Z,101061.86
2019-01-14T04:20:16.593Z,101068.70
2019-01-14T04:23:20.049Z,101076.51
2019-01-14T04:26:23.600Z,101069.64
2019-01-14T04:29:27.054Z,101063.35
2019-01-14T04:32:30.601Z,101061.06
2019-01-14T04:35:34.050Z,101067.31
2019-01-14T04:38:37.439Z,101069.82
2019-01-14T04:41:40.881Z,101076.32
2019-01-14T04:44:45.419Z,101078.09
2019-01-14T04:47:48.927Z,101083.60
2019-01-14T04:50:52.390Z,101092.93
2019-01-14T04:53:55.935Z,101090.25
2019-01-14T04:56:59.412Z,101092.62
2019-01-14T05:00:02.948Z,101095.07
2019-01-14T05:03:06.432Z,101088.78
2019-01-14T05:06:09.913Z,101096.77
2019-01-14T05:09:13.508Z,101101.99
2019-01-14T05:12:16.906Z,101102.98
2019-01-14T05:15:20.377Z,101108.23
2019-01-14T05:18:23.845Z,101116.99
2019-01-14T05:21:27.256Z,101123.48
2019-01-14T05:24:30.745Z,101125.72
2019-01-14T05:27:34.243Z,101130.16
2019-01-14T05:30:37.725Z,101125.56
2019-01-14T05:33:41.237Z,101130.59
2019-01-14T05:36:44.741Z,101123.62
2019-01-14T05:39:48.207Z,101133.86
2019-01-14T05:42:51.654Z,101129.84
2019-01-14T05:45:55.159Z,101134.88
2019-01-14T05:48:58.698Z,101139.31
2019-01-14T05:52:02.182Z,101130.75
2019-01-14T05:55:06.227Z,101129.46
2019-01-14T05:58:09.781Z,101127.37
2019-01-14T06:01:13.271Z,101133.71
2019-01-14T06:04:16.736Z,101129.41
2019-01-14T06:07:20.159Z,101131.09
2019-01-14T06:10:23.524Z,101146.89
2019-01-14T06:13:27.050Z,101142.61
2019-01-14T06:16:30.492Z,101146.36
2019-01-14T06:19:34.062Z,101146.73
2019-01-14T06:22:37.554Z,101144.79
2019-01-14T06:25:41.050Z,101150.67
2019-01-14T06:28:44.580Z,101157.20
2019-01-14T06:31:47.972Z,101158.63
2019-01-14T06:34:51.372Z,101171.51
2019-01-14T06:37:54.927Z,101176.84
2019-01-14T06:40:58.519Z,101181.14
2019-01-14T06:44:02.091Z,101191.38
2019-01-14T06:47:05.547Z,101190.78
2019-01-14T06:50:10.999Z,101200.45
2019-01-14T06:53:14.496Z,101203.32
2019-01-14T06:56:18.214Z,101215.85
2019-01-14T06:59:21.633Z,101214.09
2019-01-14T07:02:25.149Z,101228.01
2019-01-14T07:05:28.609Z,101232.17
2019-01-14T07:08:32.092Z,101229.60
2019-01-14T07:11:35.724Z,101233.32
2019-01-14T07:14:39.299Z,101237.55
2019-01-14T07:17:42.894Z,101240.73
2019-01-14T07:20:46.469Z,101248.63
2019-01-14T07:23:49.935Z,101263.52
2019-01-14T07:26:53.483Z,101270.68
2019-01-14T07:29:56.948Z,101278.51
2019-01-14T07:33:00.463Z,101287.12
2019-01-14T07:36:04.127Z,101293.15
2019-01-14T07:39:08.785Z,101291.08
2019-01-14T07:42:12.325Z,101296.34
2019-01-14T07:45:16.446Z,101297.56
2019-01-14T07:48:19.855Z,101298.08
2019-01-14T07:51:23.283Z,101303.98
2019-01-14T07:54:26.680Z,101312.61
2019-01-14T07:57:30.164Z,101318.06
2019-01-14T08:00:33.634Z,101315.73
2019-01-14T08:03:37.158Z,101335.76
2019-01-14T08:06:40.619Z,101328.85
2019-01-14T08:09:44.093Z,101329.65
2019-01-14T08:12:47.511Z,101346.61
2019-01-14T08:15:51.178Z,101349.41
2019-01-14T08:18:54.599Z,101363.26
2019-01-14T08:21:58.095Z,101358.04
2019-01-14T08:25:02.513Z,101359.79
2019-01-14T08:28:05.980Z,101355.08
2019-01-14T08:31:09.457Z,101353.59
2019-01-14T08:34:12.985Z,101359.54
2019-01-14T08:37:16.463Z,101368.26
2019-01-14T08:40:20.058Z,101365.92
2019-01-14T08:43:23.623Z,101365.48
2019-01-14T08:46:27.200Z,101368.61
2019-01-14T08:49:30.685Z,101375.52
2019-01-14T08:52:34.173Z,101383.94
2019-01-14T08:55:37.886Z,101387.84
2019-01-14T08:58:42.338Z,101381.35
2019-01-14T09:01:45.825Z,101394.84
2019-01-14T09:04:49.984Z,101395.89
2019-01-14T09:07:53.561Z,101397.14
2019-01-14T09:10:57.049Z,101394.75
2019-01-14T09:14:00.607Z,101399.69
2019-01-14T09:17:05.258Z,101406.14
2019-01-14T09:20:12.100Z,101404.14
2019-01-14T09:23:15.562Z,101392.79
2019-01-14T09:26:20.105Z,101401.05
2019-01-14T09:29:23.670Z,101402.97
2019-01-14T09:35:58.758Z,101405.40
2019-01-14T09:39:08.838Z,101407.65
2019-01-14T09:42:12.504Z,101409.34
2019-01-14T09:45:16.020Z,101408.28
2019-01-14T09:48:20.649Z,101411.26
2019-01-14T09:51:25.225Z,101407.63
2019-01-14T09:54:28.834Z,101407.77
2019-01-14T09:57:32.362Z,101417.53
2019-01-14T10:00:36.962Z,101405.73
2019-01-14T10:03:40.548Z,101398.27
2019-01-14T10:06:44.101Z,101403.66
2019-01-14T10:09:47.705Z,101413.32
2019-01-14T10:12:51.147Z,101411.90
2019-01-14T10:15:54.668Z,101412.09
2019-01-14T10:18:58.329Z,101414.97
2019-01-14T10:22:01.854Z,101411.58
2019-01-14T10:25:06.205Z,101417.92
2019-01-14T10:28:09.724Z,101414.02
2019-01-14T10:31:13.169Z,101405.43
2019-01-14T10:34:16.725Z,101410.54
2019-01-14T10:37:22.892Z,101405.23
2019-01-14T10:40:23.899Z,101412.36
2019-01-14T10:43:27.443Z,101409.88
2019-01-14T10:46:30.950Z,101416.28
2019-01-14T10:49:34.528Z,101406.04
2019-01-14T10:52:38.090Z,101411.52
2019-01-14T10:55:41.590Z,101405.88
2019-01-14T10:58:45.080Z,101412.99
2019-01-14T11:01:48.570Z,101409.26
2019-01-14T11:04:52.147Z,101417.67
2019-01-14T11:07:55.680Z,101406.50
2019-01-14T11:10:59.202Z,101406.01
2019-01-14T11:14:02.679Z,101412.08
2019-01-14T11:17:06.200Z,101402.56
2019-01-14T11:20:13.228Z,101402.99
2019-01-14T11:23:16.794Z,101409.74
2019-01-14T11:26:20.421Z,101414.16
2019-01-14T11:29:23.880Z,101421.37
2019-01-14T11:32:27.373Z,101418.73
2019-01-14T11:35:30.823Z,101424.59
2019-01-14T11:38:39.267Z,101424.03
2019-01-14T11:41:42.856Z,101431.12
2019-01-14T11:44:46.249Z,101431.94
2019-01-14T11:47:49.652Z,101433.93
2019-01-14T11:50:53.080Z,101428.41
2019-01-14T11:53:56.548Z,101456.97
2019-01-14T11:56:59.927Z,101513.22
2019-01-14T12:00:03.522Z,101529.13
2019-01-14T12:03:08.525Z,101550.61
2019-01-14T12:06:10.481Z,101561.20
2019-01-14T12:09:14.026Z,101578.74
2019-01-14T12:12:17.484Z,101577.17
2019-01-14T12:15:23.017Z,101583.04
2019-01-14T12:18:26.426Z,101587.56
2019-01-14T12:21:29.920Z,101596.91
2019-01-14T12:24:33.322Z,101588.11
2019-01-14T12:27:36.821Z,101586.78
2019-01-14T12:30:41.732Z,101585.40
2019-01-14T12:33:44.044Z,101588.33
2019-01-14T12:36:47.540Z,101594.71
2019-01-14T12:39:50.942Z,101582.78
2019-01-14T12:42:54.671Z,101576.75
2019-01-14T12:45:58.145Z,101591.70
2019-01-14T12:49:01.522Z,101602.16
2019-01-14T12:52:05.106Z,101612.63
2019-01-14T12:55:09.696Z,101610.93
2019-01-14T12:58:13.164Z,101613.38
2019-01-14T13:01:16.606Z,101613.82
2019-01-14T13:04:20.057Z,101618.35
2019-01-14T13:07:23.481Z,101612.46
2019-01-14T13:10:26.958Z,101610.49
2019-01-14T13:13:30.405Z,101622.21
2019-01-14T13:16:33.775Z,101629.62
2019-01-14T13:19:37.228Z,101626.40
2019-01-14T13:22:40.760Z,101639.86
2019-01-14T13:25:44.170Z,101644.39
2019-01-14T13:28:47.664Z,101645.26
2019-01-14T13:31:51.110Z,101652.71
2019-01-14T13:34:54.607Z,101663.40
2019-01-14T13:37:58.264Z,101676.99
2019-01-14T13:41:01.776Z,101674.79
2019-01-14T13:44:05.263Z,101675.50
2019-01-14T13:47:08.710Z,101672.05
2019-01-14T13:50:13.730Z,101679.46
2019-01-14T13:53:17.186Z,101689.79
2019-01-14T13:56:20.531Z,101696.48
2019-01-14T13:59:23.946Z,101695.43
2019-01-14T14:02:27.324Z,101702.44
2019-01-14T14:05:30.738Z,101709.01
2019-01-14T14:08:34.124Z,101712.06
2019-01-14T14:11:37.541Z,101707.95
2019-01-14T14:14:40.923Z,101712.98
2019-01-14T14:17:44.369Z,101703.37
2019-01-14T14:20:47.797Z,101705.68
2019-01-14T14:24:02.260Z,101704.67
2019-01-14T14:27:05.813Z,101710.60
2019-01-14T14:30:15.232Z,101719.26
2019-01-14T14:33:18.746Z,101718.35
2019-01-14T14:36:22.262Z,101718.64
2019-01-14T14:39:25.743Z,101724.74
2019-01-14T14:42:29.243Z,101724.18
2019-01-14T14:45:32.825Z,101727.49
2019-01-14T14:48:36.369Z,101742.86
2019-01-14T14:51:39.890Z,101752.00
2019-01-14T14:54:43.400Z,101758.26
2019-01-14T14:57:46.947Z,101761.36
2019-01-14T15:00:50.495Z,101769.40
2019-01-14T15:03:53.967Z,101778.72
2019-01-14T15:06:57.511Z,101779.12
2019-01-14T15:10:00.976Z,101781.92
2019-01-14T15:13:04.719Z,101794.29
2019-01-14T15:16:09.426Z,101803.00
2019-01-14T15:19:12.942Z,101815.49
2019-01-14T15:22:16.394Z,101827.00
2019-01-14T15:25:20.472Z,101841.32
2019-01-14T15:28:24.074Z,101844.17
2019-01-14T15:31:27.753Z,101847.57
2019-01-14T15:34:33.163Z,101855.74
2019-01-14T15:37:36.412Z,101857.62
2019-01-14T15:40:39.902Z,101863.56
2019-01-14T15:43:46.249Z,101866.82
2019-01-14T15:46:49.771Z,101874.69
2019-01-14T15:49:53.296Z,101875.64
2019-01-14T15:52:56.819Z,101880.88
2019-01-14T15:56:00.294Z,101877.95
2019-01-14T15:59:03.804Z,101883.58
2019-01-14T16:02:07.424Z,101888.30
2019-01-14T16:05:11.092Z,101901.90
2019-01-14T16:08:14.670Z,101912.68
2019-01-14T16:11:18.168Z,101920.46
2019-01-14T16:14:21.669Z,101933.18
2019-01-14T16:17:25.221Z,101933.88
2019-01-14T16:20:28.746Z,101934.57
2019-01-14T16:23:32.270Z,101940.98
2019-01-14T16:26:35.724Z,101952.69
2019-01-14T16:29:39.306Z,101957.98
2019-01-14T16:32:42.960Z,101965.40
2019-01-14T16:35:46.400Z,101970.97
2019-01-14T16:38:49.858Z,101974.51
2019-01-14T16:41:53.395Z,101973.59
2019-01-14T16:44:56.944Z,101979.58
2019-01-14T16:48:00.549Z,101976.79
2019-01-14T16:51:04.143Z,101981.73
2019-01-14T16:54:07.651Z,101978.99
2019-01-14T16:57:11.288Z,101983.43
2019-01-14T17:00:17.056Z,101986.85
2019-01-14T17:03:22.564Z,101996.85
2019-01-14T17:06:26.151Z,101994.95
2019-01-14T17:09:29.731Z,101992.76
2019-01-14T17:12:33.229Z,102008.28
2019-01-14T17:15:36.700Z,102021.21
2019-01-14T17:18:40.260Z,102019.48
2019-01-14T17:21:43.713Z,102029.86
2019-01-14T17:24:47.237Z,102029.59
2019-01-14T17:27:50.791Z,102032.33
2019-01-14T17:30:54.354Z,102036.55
2019-01-14T17:33:57.868Z,102046.53
2019-01-14T17:37:02.031Z,102046.80
2019-01-14T17:40:08.165Z,102061.78
2019-01-14T17:43:11.629Z,102068.22
2019-01-14T17:46:15.984Z,102073.34
2019-01-14T17:49:19.537Z,102075.76
2019-01-14T17:52:23.320Z,102081.27
2019-01-14T17:55:26.918Z,102084.85
2019-01-14T17:58:30.639Z,102086.76
2019-01-14T18:01:34.139Z,102096.24
2019-01-14T18:04:37.930Z,102097.19
2019-01-14T18:07:42.171Z,102100.82
2019-01-14T18:14:16.285Z,102106.74
2019-01-14T18:17:19.878Z,102114.00
2019-01-14T18:20:23.529Z,102127.49
2019-01-14T18:23:27.138Z,102132.82
2019-01-14T18:26:30.679Z,102129.91
2019-01-14T18:29:34.220Z,102138.21
2019-01-14T18:32:37.843Z,102140.63
2019-01-14T18:35:41.455Z,102142.25
2019-01-14T18:38:45.013Z,102151.63
2019-01-14T18:41:48.510Z,102148.16
2019-01-14T18:44:51.960Z,102155.25
2019-01-14T18:47:55.558Z,102153.04
2019-01-14T18:50:59.031Z,102160.14
2019-01-14T18:54:02.467Z,102155.49
2019-01-14T18:57:06.083Z,102161.04
2019-01-14T19:00:12.649Z,102161.31
2019-01-14T19:03:16.103Z,102167.78
2019-01-14T19:06:19.492Z,102178.13
2019-01-14T19:09:22.925Z,102183.63
2019-01-14T19:12:26.296Z,102184.20
2019-01-14T19:15:29.861Z,102186.03
2019-01-14T19:18:33.338Z,102193.45
2019-01-14T19:21:38.038Z,102199.87
2019-01-14T19:24:41.601Z,102203.61
2019-01-14T19:31:16.380Z,102218.17
2019-01-14T19:34:22.135Z,102217.21
2019-01-14T19:37:27.373Z,102225.63
2019-01-14T19:40:30.984Z,102225.95
2019-01-14T19:43:34.658Z,102236.36
2019-01-14T19:46:38.057Z,102239.85
2019-01-14T19:49:41.605Z,102245.00
2019-01-14T19:52:45.375Z,102255.86
2019-01-14T19:55:50.140Z,102271.59
2019-01-14T19:58:56.282Z,102274.09
2019-01-14T20:01:59.812Z,102281.34
2019-01-14T20:05:04.800Z,102283.55
2019-01-14T20:08:08.306Z,102280.93
2019-01-14T20:11:11.816Z,102290.06
2019-01-14T20:14:15.266Z,102301.78
2019-01-14T20:17:18.764Z,102311.31
2019-01-14T20:20:22.328Z,102315.79
2019-01-14T20:23:25.842Z,102314.88
2019-01-14T20:26:30.314Z,102311.62
2019-01-14T20:29:34.355Z,102316.23
2019-01-14T20:32:37.869Z,102320.03
2019-01-14T20:35:41.628Z,102322.57
2019-01-14T20:38:48.720Z,102324.68
2019-01-14T20:41:54.028Z,102322.05
2019-01-14T20:44:57.513Z,102322.24
2019-01-14T20:48:00.962Z,102319.24
2019-01-14T20:51:05.627Z,102320.52
2019-01-14T20:54:07.899Z,102319.36
2019-01-14T20:57:11.391Z,102319.76
2019-01-14T21:00:16.979Z,102328.12
2019-01-14T21:03:20.447Z,102323.27
2019-01-14T21:06:24.000Z,102330.78
2019-01-14T21:09:27.431Z,102330.07
2019-01-14T21:12:30.909Z,102327.30
2019-01-14T21:15:34.489Z,102324.11
2019-01-14T21:18:37.934Z,102330.84
2019-01-14T21:21:41.434Z,102337.07
2019-01-14T21:24:44.844Z,102344.14
2019-01-14T21:27:48.333Z,102348.93
2019-01-14T21:30:51.748Z,102345.95
2019-01-14T21:33:55.199Z,102346.10
2019-01-14T21:36:58.650Z,102351.38
2019-01-14T21:40:02.314Z,102352.28
2019-01-14T21:46:06.360Z,102364.01
2019-01-14T21:49:09.876Z,102369.04
2019-01-14T21:52:13.310Z,102377.74
2019-01-14T21:55:20.136Z,102379.43
2019-01-14T21:58:23.600Z,102384.11
2019-01-14T22:01:27.181Z,102387.78
2019-01-14T22:04:30.673Z,102392.33
2019-01-14T22:07:34.187Z,102379.19
2019-01-14T22:10:38.603Z,102375.61
2019-01-14T22:13:42.178Z,102382.69
2019-01-14T22:16:45.796Z,102384.33
2019-01-14T22:19:49.426Z,102383.42
2019-01-14T22:22:52.943Z,102386.85
2019-01-14T22:25:56.578Z,102382.81
2019-01-14T22:32:36.575Z,102381.39
2019-01-14T22:35:40.164Z,102381.97
2019-01-14T22:38:43.664Z,102379.53
2019-01-14T22:41:48.307Z,102381.35
2019-01-14T22:44:51.812Z,102389.64
2019-01-14T22:47:55.312Z,102391.96
2019-01-14T22:50:59.805Z,102397.23
2019-01-14T22:54:03.331Z,102393.20
2019-01-14T22:57:06.923Z,102402.95
2019-01-14T23:01:19.782Z,102400.10
2019-01-14T23:04:23.280Z,102406.09
2019-01-14T23:07:26.886Z,102413.07
2019-01-14T23:10:30.392Z,102413.14
2019-01-14T23:13:33.972Z,102416.41
2019-01-14T23:16:37.588Z,102418.21
2019-01-14T23:19:41.111Z,102426.01
2019-01-14T23:22:44.696Z,102430.38
2019-01-14T23:25:48.208Z,102437.51
2019-01-14T23:28:51.758Z,102432.82
2019-01-14T23:31:55.424Z,102430.02
2019-01-14T23:34:59.016Z,102431.28
2019-01-14T23:38:02.643Z,102440.69
2019-01-14T23:41:06.221Z,102442.51
2019-01-14T23:44:10.805Z,102447.57
2019-01-14T23:47:14.378Z,102452.58
2019-01-14T23:50:17.985Z,102456.00
2019-01-14T23:53:21.582Z,102461.98
2019-01-14T23:56:25.365Z,102468.73
2019-01-14T23:59:29.062Z,102471.45
